createdAt,value
2022-07-28T00:01:19.997Z,15.3
2022-07-28T00:07:11.890Z,15.2
2022-07-28T00:13:06.731Z,15.4
2022-07-28T00:18:56.150Z,14.9
2022-07-28T00:24:49.250Z,15.3
2022-07-28T00:30:41.430Z,15.2
2022-07-28T00:36:33.602Z,15.4
2022-07-28T00:42:29.634Z,15
2022-07-28T00:48:20.742Z,15.1
2022-07-28T00:54:16.997Z,15.3
2022-07-28T01:00:09.415Z,15.3
2022-07-28T01:06:00.667Z,15.4
2022-07-28T01:11:53.084Z,15.3
2022-07-28T01:17:46.888Z,15.1
2022-07-28T01:23:37.757Z,15.1
2022-07-28T01:29:29.107Z,15
2022-07-28T01:35:20.567Z,15
2022-07-28T01:41:12.705Z,15.1
2022-07-28T01:47:05.188Z,14.9
2022-07-28T01:52:56.735Z,14.7
2022-07-28T01:58:48.076Z,14.6
2022-07-28T02:04:41.128Z,14.4
2022-07-28T02:10:33.997Z,14.1
2022-07-28T02:16:26.963Z,14.4
2022-07-28T02:22:18.660Z,14.5
2022-07-28T02:28:12.473Z,14.1
2022-07-28T02:34:07.131Z,14.1
2022-07-28T02:40:06.794Z,13.9
2022-07-28T02:45:58.255Z,14.2
2022-07-28T02:51:55.373Z,14
2022-07-28T02:57:52.031Z,13.7
2022-07-28T03:03:49.647Z,14.1
2022-07-28T03:09:42.546Z,13.7
2022-07-28T03:15:33.411Z,13.9
2022-07-28T03:21:24.320Z,13.7
2022-07-28T03:27:18.267Z,13.4
2022-07-28T03:33:11.140Z,13.2
2022-07-28T03:39:03.630Z,13.4
2022-07-28T03:44:55.053Z,13.2
2022-07-28T03:50:46.940Z,13
2022-07-28T03:56:37.754Z,13.3
2022-07-28T04:02:30.719Z,13.3
2022-07-28T04:08:23.402Z,13
2022-07-28T04:14:19.532Z,13.4
2022-07-28T04:20:14.526Z,13.2
2022-07-28T04:26:06.764Z,13.3
2022-07-28T04:33:07.738Z,13.1
2022-07-28T04:38:58.218Z,13.5
2022-07-28T04:44:53.291Z,13.5
2022-07-28T04:50:47.545Z,13.6
2022-07-28T04:56:43.150Z,13.5
2022-07-28T05:02:35.306Z,13.7
2022-07-28T05:08:30.081Z,14
2022-07-28T05:14:25.611Z,14.3
2022-07-28T05:20:18.861Z,16.2
2022-07-28T05:26:10.115Z,16.1
2022-07-28T05:32:07.888Z,16.5
2022-07-28T05:38:11.070Z,17.6
2022-07-28T05:44:01.528Z,18.1
2022-07-28T05:49:50.313Z,25
2022-07-28T05:55:57.689Z,23.9
2022-07-28T06:01:51.799Z,26.6
2022-07-28T06:07:46.126Z,25.6
2022-07-28T06:13:36.935Z,23.8
2022-07-28T06:19:31.466Z,24
2022-07-28T06:25:20.783Z,22.3
2022-07-28T06:31:07.814Z,21.1
2022-07-28T06:36:58.898Z,20
2022-07-28T06:42:51.505Z,19.4
2022-07-28T06:48:42.211Z,19.4
2022-07-28T06:54:34.166Z,19
2022-07-28T07:00:36.929Z,19.1
2022-07-28T07:06:29.339Z,18.8
2022-07-28T07:12:21.882Z,19
2022-07-28T07:18:18.503Z,18.4
2022-07-28T07:24:12.814Z,19
2022-07-28T07:30:09.486Z,18.3
2022-07-28T07:36:01.323Z,18.7
2022-07-28T07:41:55.259Z,18.8
2022-07-28T07:47:48.566Z,18.5
2022-07-28T07:53:40.949Z,18.6
2022-07-28T07:59:32.832Z,18.9
2022-07-28T08:05:34.667Z,19.1
2022-07-28T08:11:28.893Z,18.9
2022-07-28T08:17:23.583Z,18.9
2022-07-28T08:23:16.919Z,19
2022-07-28T08:29:13.982Z,19.2
2022-07-28T08:35:31.479Z,19.3
2022-07-28T08:41:25.086Z,19.7
2022-07-28T08:47:23.622Z,19.5
2022-07-28T08:53:55.165Z,20
2022-07-28T08:59:46.590Z,19.9
2022-07-28T09:05:38.909Z,20
2022-07-28T09:11:31.685Z,20.2
2022-07-28T09:17:23.562Z,20.5
2022-07-28T09:23:33.775Z,20.8
2022-07-28T09:29:39.947Z,20.8
2022-07-28T09:35:33.521Z,21
2022-07-28T09:41:26.884Z,21.5
2022-07-28T09:47:35.058Z,21.5
2022-07-28T09:53:36.258Z,21.4
2022-07-28T10:18:23.981Z,22.4
2022-07-28T10:24:21.642Z,22.2
2022-07-28T10:30:17.321Z,22.6
2022-07-28T10:36:07.975Z,22.7
2022-07-28T10:42:01.709Z,22.8
2022-07-28T10:47:57.630Z,23.2
2022-07-28T10:53:48.505Z,23.3
2022-07-28T10:59:41.480Z,23.1
2022-07-28T11:05:44.514Z,23
2022-07-28T11:11:35.662Z,23.5
2022-07-28T11:17:33.272Z,23.9
2022-07-28T11:23:33.347Z,23.9
2022-07-28T11:29:32.520Z,24.2
2022-07-28T11:35:25.372Z,24.4
2022-07-28T11:41:17.542Z,24.6
2022-07-28T11:47:07.758Z,24.4
2022-07-28T11:52:59.441Z,24.1
2022-07-28T11:58:54.062Z,24.3
2022-07-28T12:04:44.608Z,24.7
2022-07-28T12:10:56.017Z,24.5
2022-07-28T12:16:46.146Z,25
2022-07-28T12:22:40.292Z,25.3
2022-07-28T12:28:45.157Z,25.3
2022-07-28T12:34:37.505Z,25.4
2022-07-28T12:40:41.166Z,25.5
2022-07-28T12:46:40.473Z,25.3
2022-07-28T12:52:33.528Z,25.6
2022-07-28T12:58:25.505Z,25.4
2022-07-28T13:10:57.338Z,25.6
2022-07-28T13:17:31.589Z,25.7
2022-07-28T13:23:27.308Z,25.9
2022-07-28T13:29:20.950Z,25.8
2022-07-28T13:35:26.215Z,25.9
2022-07-28T13:47:11.919Z,26.1
2022-07-28T13:59:12.511Z,26.4
2022-07-28T14:05:04.905Z,26.4
2022-07-28T14:10:57.739Z,26.4
2022-07-28T14:16:55.439Z,26.4
2022-07-28T14:23:33.738Z,26.2
2022-07-28T14:29:26.635Z,26.3
2022-07-28T14:35:17.622Z,26.4
2022-07-28T14:41:11.853Z,26.4
2022-07-28T14:47:05.316Z,26.2
2022-07-28T14:52:56.838Z,26.3
2022-07-28T14:58:48.763Z,26.1
2022-07-28T15:04:40.446Z,26.2
2022-07-28T15:10:31.613Z,26.4
2022-07-28T15:16:23.403Z,26.3
2022-07-28T15:22:16.527Z,26.4
2022-07-28T15:28:14.232Z,26.3
2022-07-28T15:34:13.497Z,26.1
2022-07-28T15:40:22.827Z,26.2
2022-07-28T15:46:21.414Z,26.2
2022-07-28T15:52:14.538Z,26.1
2022-07-28T15:58:06.643Z,26.1
2022-07-28T16:04:09.659Z,26.2
2022-07-28T16:10:02.504Z,26.1
2022-07-28T16:15:51.902Z,26.4
2022-07-28T16:21:43.455Z,26.3
2022-07-28T16:27:38.111Z,26.3
2022-07-28T16:33:36.100Z,25.9
2022-07-28T16:39:27.151Z,25.9
2022-07-28T16:45:23.098Z,25.9
2022-07-28T16:51:23.498Z,25.7
2022-07-28T16:57:19.306Z,25.7
2022-07-28T17:03:13.625Z,25.6
2022-07-28T17:09:03.509Z,25.5
2022-07-28T17:14:56.461Z,25.5
2022-07-28T17:20:46.939Z,25.5
2022-07-28T17:33:37.128Z,25.3
2022-07-28T17:39:30.796Z,25.3
2022-07-28T17:45:29.027Z,25.2
2022-07-28T17:51:22.540Z,25.1
2022-07-28T17:57:14.524Z,24.9
2022-07-28T18:03:14.458Z,24.8
2022-07-28T18:15:32.751Z,24.6
2022-07-28T18:21:26.254Z,24.5
2022-07-28T18:27:33.267Z,24.4
2022-07-28T18:33:31.402Z,24.3
2022-07-28T18:39:22.200Z,24.1
2022-07-28T18:45:14.525Z,24
2022-07-28T18:51:06.801Z,23.9
2022-07-28T18:57:00.908Z,23.9
2022-07-28T19:09:05.687Z,23.8
2022-07-28T19:14:59.374Z,23.7
2022-07-28T19:20:48.177Z,23.6
2022-07-28T19:26:41.778Z,23.5
2022-07-28T19:32:33.014Z,23.6
2022-07-28T19:38:24.741Z,23.5
2022-07-28T19:44:22.715Z,23.3
2022-07-28T19:50:23.575Z,23.1
2022-07-28T19:56:17.261Z,23
2022-07-28T20:02:18.357Z,22.8
2022-07-28T20:08:09.475Z,22.7
2022-07-28T20:14:00.334Z,22.5
2022-07-28T20:19:52.892Z,22.4
2022-07-28T20:25:43.149Z,22
2022-07-28T20:31:33.260Z,22.2
2022-07-28T20:37:29.113Z,21.6
2022-07-28T20:43:31.251Z,21.6
2022-07-28T20:49:27.046Z,21.7
2022-07-28T20:55:16.621Z,21.5
2022-07-28T21:01:06.377Z,21.6
2022-07-28T21:07:01.910Z,21.1
2022-07-28T21:13:00.763Z,21.1
2022-07-28T21:18:54.721Z,21
2022-07-28T21:25:07.838Z,20.8
2022-07-28T21:30:58.660Z,20.7
2022-07-28T21:36:50.351Z,20.7
2022-07-28T21:42:42.116Z,20.7
2022-07-28T21:48:33.787Z,20.6
2022-07-28T21:54:28.570Z,20.7
2022-07-28T22:00:23.887Z,20.2
2022-07-28T22:06:13.942Z,20.5
2022-07-28T22:12:05.732Z,20.4
2022-07-28T22:17:57.147Z,20.2
2022-07-28T22:23:49.968Z,20.4
2022-07-28T22:29:51.249Z,20.4
2022-07-28T22:35:45.800Z,20.3
2022-07-28T22:41:38.642Z,20
2022-07-28T22:47:35.487Z,19.8
2022-07-28T22:53:26.382Z,19.9
2022-07-28T22:59:18.004Z,19.8
2022-07-28T23:05:22.051Z,20
2022-07-28T23:11:17.267Z,19.8
2022-07-28T23:17:09.240Z,19.8
2022-07-28T23:23:01.039Z,19.5
2022-07-28T23:28:52.277Z,19.9
2022-07-28T23:34:43.674Z,19.5
2022-07-28T23:40:35.392Z,19.6
2022-07-28T23:46:26.820Z,19.6
2022-07-28T23:52:19.910Z,19.7
2022-07-28T23:58:10.915Z,19.7
